createdAt,value
2018-06-22T00:01:54.645Z,11.30
2018-06-22T00:04:23.219Z,11.30
2018-06-22T00:06:51.776Z,11.40
2018-06-22T00:09:20.350Z,11.40
2018-06-22T00:11:48.938Z,11.40
2018-06-22T00:14:17.504Z,11.40
2018-06-22T00:16:46.102Z,11.40
2018-06-22T00:19:14.670Z,11.40
2018-06-22T00:21:43.245Z,11.30
2018-06-22T00:24:12.391Z,11.30
2018-06-22T00:26:40.968Z,11.30
2018-06-22T00:29:09.568Z,11.20
2018-06-22T00:31:38.099Z,11.20
2018-06-22T00:34:06.691Z,11.20
2018-06-22T00:36:36.836Z,11.10
2018-06-22T00:41:35.259Z,11.00
2018-06-22T00:44:04.114Z,11.00
2018-06-22T00:46:32.715Z,11.00
2018-06-22T00:49:01.355Z,11.00
2018-06-22T00:51:29.924Z,10.90
2018-06-22T00:54:10.648Z,10.90
2018-06-22T00:56:39.564Z,10.90
2018-06-22T00:59:08.433Z,11.00
2018-06-22T01:01:37.011Z,10.90
2018-06-22T01:04:05.868Z,10.80
2018-06-22T01:06:34.485Z,10.70
2018-06-22T01:09:03.138Z,10.70
2018-06-22T01:11:31.711Z,10.70
2018-06-22T01:14:00.275Z,10.60
2018-06-22T01:16:28.878Z,10.60
2018-06-22T01:18:57.439Z,10.60
2018-06-22T01:21:25.989Z,10.60
2018-06-22T01:23:54.565Z,10.60
2018-06-22T01:26:23.212Z,10.50
2018-06-22T01:28:56.059Z,10.50
2018-06-22T01:31:24.648Z,10.50
2018-06-22T01:33:53.167Z,10.60
2018-06-22T01:36:21.698Z,10.50
2018-06-22T01:38:50.477Z,10.50
2018-06-22T01:41:19.139Z,10.40
2018-06-22T01:43:47.698Z,10.50
2018-06-22T01:46:16.267Z,10.40
2018-06-22T01:48:45.185Z,10.40
2018-06-22T01:51:13.682Z,10.40
2018-06-22T01:53:42.981Z,10.40
2018-06-22T01:56:11.514Z,10.40
2018-06-22T01:58:40.035Z,10.40
2018-06-22T02:01:08.575Z,10.30
2018-06-22T02:03:37.274Z,10.20
2018-06-22T02:06:05.830Z,10.20
2018-06-22T02:08:35.126Z,10.20
2018-06-22T02:11:03.670Z,10.20
2018-06-22T02:13:32.226Z,10.20
2018-06-22T02:16:01.386Z,10.10
2018-06-22T02:18:29.929Z,10.10
2018-06-22T02:20:58.450Z,10.10
2018-06-22T02:23:26.952Z,10.00
2018-06-22T02:25:55.602Z,10.00
2018-06-22T02:28:24.151Z,10.00
2018-06-22T02:30:52.667Z,9.90
2018-06-22T02:33:21.168Z,9.90
2018-06-22T02:35:49.679Z,9.90
2018-06-22T02:38:18.168Z,9.90
2018-06-22T02:40:46.776Z,9.90
2018-06-22T02:43:15.275Z,9.80
2018-06-22T02:45:43.781Z,9.80
2018-06-22T02:48:12.728Z,9.80
2018-06-22T02:50:41.255Z,9.80
2018-06-22T02:53:09.793Z,9.80
2018-06-22T02:55:38.341Z,9.80
2018-06-22T02:58:06.863Z,9.80
2018-06-22T03:00:35.438Z,9.90
2018-06-22T03:03:04.024Z,9.90
2018-06-22T03:05:32.568Z,9.90
2018-06-22T03:08:01.253Z,9.80
2018-06-22T03:10:29.759Z,9.80
2018-06-22T03:12:58.297Z,9.80
2018-06-22T03:15:27.298Z,9.80
2018-06-22T03:17:55.836Z,9.80
2018-06-22T03:20:24.372Z,9.80
2018-06-22T03:22:53.326Z,9.80
2018-06-22T03:25:21.858Z,9.80
2018-06-22T03:27:50.552Z,9.90
2018-06-22T03:30:19.065Z,9.90
2018-06-22T03:32:47.622Z,9.90
2018-06-22T03:35:16.331Z,10.00
2018-06-22T03:37:44.855Z,10.00
2018-06-22T03:40:13.458Z,10.00
2018-06-22T03:42:42.055Z,10.00
2018-06-22T03:45:10.588Z,10.00
2018-06-22T03:47:39.360Z,10.10
2018-06-22T03:50:08.503Z,10.10
2018-06-22T03:52:37.073Z,10.10
2018-06-22T03:55:05.700Z,10.10
2018-06-22T03:57:34.278Z,10.20
2018-06-22T04:00:03.051Z,10.20
2018-06-22T04:02:31.619Z,10.20
2018-06-22T04:05:00.182Z,10.20
2018-06-22T04:07:28.782Z,10.20
2018-06-22T04:12:26.802Z,10.30
2018-06-22T04:14:55.416Z,10.40
2018-06-22T04:17:24.002Z,10.40
2018-06-22T04:19:52.771Z,10.40
2018-06-22T04:22:21.382Z,10.40
2018-06-22T04:24:50.026Z,10.50
2018-06-22T04:27:18.608Z,10.50
2018-06-22T04:29:47.224Z,10.50
2018-06-22T04:32:16.344Z,10.60
2018-06-22T04:34:44.934Z,10.60
2018-06-22T04:37:13.531Z,10.60
2018-06-22T04:39:43.055Z,10.70
2018-06-22T04:42:11.653Z,10.80
2018-06-22T04:44:40.218Z,10.80
2018-06-22T04:47:09.721Z,10.90
2018-06-22T04:49:38.346Z,10.90
2018-06-22T04:52:06.915Z,10.90
2018-06-22T04:54:35.654Z,11.00
2018-06-22T04:57:04.649Z,11.00
2018-06-22T04:59:33.349Z,11.00
2018-06-22T05:02:01.926Z,11.10
2018-06-22T05:04:30.521Z,11.10
2018-06-22T05:06:59.144Z,11.20
2018-06-22T05:09:27.705Z,11.20
2018-06-22T05:11:56.305Z,11.20
2018-06-22T05:14:24.910Z,11.30
2018-06-22T05:16:53.470Z,11.30
2018-06-22T05:19:22.670Z,11.30
2018-06-22T05:21:51.250Z,11.40
2018-06-22T05:24:19.824Z,11.40
2018-06-22T05:26:48.448Z,11.30
2018-06-22T05:29:17.026Z,11.30
2018-06-22T05:31:45.591Z,11.20
2018-06-22T05:34:14.212Z,11.20
2018-06-22T05:36:43.461Z,11.20
2018-06-22T05:39:12.446Z,11.20
2018-06-22T05:41:41.002Z,11.20
2018-06-22T05:44:10.219Z,11.20
2018-06-22T05:46:38.830Z,11.20
2018-06-22T05:49:07.445Z,11.20
2018-06-22T05:51:36.017Z,11.20
2018-06-22T05:54:04.660Z,11.20
2018-06-22T05:56:33.503Z,11.10
2018-06-22T06:01:30.404Z,11.10
2018-06-22T06:03:59.702Z,11.10
2018-06-22T06:06:29.041Z,11.10
2018-06-22T06:08:58.890Z,11.10
2018-06-22T06:11:27.498Z,11.10
2018-06-22T06:13:56.090Z,11.00
2018-06-22T06:16:24.714Z,11.10
2018-06-22T06:18:53.327Z,11.00
2018-06-22T06:21:23.292Z,10.90
2018-06-22T06:23:52.703Z,10.80
2018-06-22T06:26:21.251Z,10.70
2018-06-22T06:28:49.839Z,10.50
2018-06-22T06:31:18.402Z,10.40
2018-06-22T06:33:47.057Z,10.30
2018-06-22T06:36:15.678Z,10.30
2018-06-22T06:38:44.241Z,10.30
2018-06-22T06:41:12.876Z,10.30
2018-06-22T06:43:41.592Z,10.40
2018-06-22T06:46:10.196Z,10.40
2018-06-22T06:48:39.706Z,10.50
2018-06-22T06:51:09.004Z,10.50
2018-06-22T06:53:37.561Z,10.50
2018-06-22T06:56:06.257Z,10.60
2018-06-22T06:58:35.121Z,10.60
2018-06-22T07:01:04.179Z,10.70
2018-06-22T07:03:32.896Z,10.80
2018-06-22T07:06:01.512Z,10.90
2018-06-22T07:08:30.099Z,11.00
2018-06-22T07:11:01.253Z,11.00
2018-06-22T07:13:29.895Z,10.90
2018-06-22T07:15:58.532Z,11.00
2018-06-22T07:18:27.098Z,11.00
2018-06-22T07:20:55.677Z,11.00
2018-06-22T07:23:24.838Z,11.10
2018-06-22T07:25:53.419Z,11.20
2018-06-22T07:28:21.990Z,11.20
2018-06-22T07:30:52.871Z,11.30
2018-06-22T07:33:23.346Z,11.40
2018-06-22T07:35:54.805Z,11.40
2018-06-22T07:38:24.219Z,11.40
2018-06-22T07:40:52.813Z,11.40
2018-06-22T07:43:21.435Z,11.50
2018-06-22T07:45:51.013Z,11.70
2018-06-22T07:48:19.587Z,11.70
2018-06-22T07:50:48.157Z,11.80
2018-06-22T07:58:13.217Z,12.10
2018-06-22T08:00:42.145Z,12.30
2018-06-22T08:03:10.739Z,12.20
2018-06-22T08:05:39.318Z,12.10
2018-06-22T08:08:07.893Z,12.10
2018-06-22T08:10:36.722Z,12.00
2018-06-22T08:13:05.290Z,11.90
2018-06-22T08:15:33.958Z,11.90
2018-06-22T08:18:02.561Z,11.90
2018-06-22T08:20:31.098Z,11.80
2018-06-22T08:23:00.326Z,11.90
2018-06-22T08:25:29.053Z,12.10
2018-06-22T08:27:57.792Z,12.20
2018-06-22T08:30:26.401Z,12.50
2018-06-22T08:32:54.983Z,12.70
2018-06-22T08:35:23.546Z,12.80
2018-06-22T08:37:52.115Z,13.00
2018-06-22T08:40:20.744Z,13.10
2018-06-22T08:42:49.340Z,13.30
2018-06-22T08:45:17.945Z,13.40
2018-06-22T08:47:46.520Z,13.50
2018-06-22T08:50:15.208Z,13.50
2018-06-22T08:52:43.770Z,13.70
2018-06-22T08:55:12.343Z,13.90
2018-06-22T08:57:40.882Z,14.10
2018-06-22T09:00:09.569Z,14.10
2018-06-22T09:02:39.189Z,14.10
2018-06-22T09:05:07.694Z,14.30
2018-06-22T09:07:36.259Z,14.40
2018-06-22T09:10:04.877Z,14.20
2018-06-22T09:17:54.682Z,13.50
2018-06-22T09:20:23.231Z,13.20
2018-06-22T09:22:51.841Z,13.10
2018-06-22T09:25:20.433Z,13.20
2018-06-22T09:27:49.094Z,13.30
2018-06-22T09:30:17.709Z,13.40
2018-06-22T09:32:46.259Z,13.50
2018-06-22T09:35:14.819Z,13.50
2018-06-22T09:37:43.381Z,13.40
2018-06-22T09:40:11.908Z,13.50
2018-06-22T09:42:40.621Z,13.70
2018-06-22T09:45:09.169Z,13.90
2018-06-22T09:47:37.895Z,14.00
2018-06-22T09:50:07.880Z,14.30
2018-06-22T09:52:38.273Z,14.50
2018-06-22T09:55:07.148Z,14.80
2018-06-22T09:57:36.461Z,14.90
2018-06-22T10:00:05.060Z,15.00
2018-06-22T10:02:33.728Z,15.10
2018-06-22T10:05:02.259Z,15.40
2018-06-22T10:07:30.794Z,15.50
2018-06-22T10:09:59.381Z,15.70
2018-06-22T10:12:27.914Z,16.00
2018-06-22T10:14:57.172Z,16.30
2018-06-22T10:17:25.774Z,16.30
2018-06-22T10:19:54.375Z,16.70
2018-06-22T10:22:22.908Z,16.40
2018-06-22T10:24:51.442Z,16.50
2018-06-22T10:27:20.048Z,16.70
2018-06-22T10:29:48.578Z,16.50
2018-06-22T10:32:17.165Z,16.10
2018-06-22T10:34:45.726Z,16.00
2018-06-22T10:37:14.294Z,16.10
2018-06-22T10:39:42.874Z,16.10
2018-06-22T10:42:11.467Z,16.20
2018-06-22T10:44:40.635Z,16.00
2018-06-22T10:47:09.204Z,15.90
2018-06-22T10:49:38.166Z,15.80
2018-06-22T10:54:35.009Z,15.10
2018-06-22T10:57:03.661Z,14.80
2018-06-22T10:59:32.407Z,14.70
2018-06-22T11:02:01.009Z,14.60
2018-06-22T11:04:30.264Z,14.70
2018-06-22T11:07:05.032Z,14.80
2018-06-22T11:09:33.615Z,14.90
2018-06-22T11:12:02.211Z,14.90
2018-06-22T11:14:30.795Z,15.20
2018-06-22T11:16:59.363Z,15.20
2018-06-22T11:19:28.048Z,15.30
2018-06-22T11:21:56.709Z,15.70
2018-06-22T11:24:25.253Z,15.50
2018-06-22T11:26:53.826Z,15.50
2018-06-22T11:29:22.516Z,15.50
2018-06-22T11:31:51.834Z,15.60
2018-06-22T11:34:21.054Z,15.80
2018-06-22T11:36:49.618Z,15.80
2018-06-22T11:39:18.291Z,15.90
2018-06-22T11:41:46.919Z,15.90
2018-06-22T11:44:15.528Z,16.40
2018-06-22T11:46:44.099Z,16.50
2018-06-22T11:49:12.679Z,16.40
2018-06-22T11:51:41.276Z,16.40
2018-06-22T11:54:09.861Z,16.90
2018-06-22T11:56:39.310Z,16.90
2018-06-22T11:59:07.895Z,17.30
2018-06-22T12:01:36.747Z,17.80
2018-06-22T12:04:05.744Z,17.40
2018-06-22T12:06:35.537Z,17.20
2018-06-22T12:09:06.537Z,17.20
2018-06-22T12:11:35.223Z,16.90
2018-06-22T12:14:04.150Z,17.00
2018-06-22T12:16:32.710Z,17.00
2018-06-22T12:19:01.403Z,16.60
2018-06-22T12:21:31.052Z,16.30
2018-06-22T12:23:59.600Z,16.20
2018-06-22T12:26:28.823Z,16.20
2018-06-22T12:28:57.900Z,16.00
2018-06-22T12:31:26.707Z,15.90
2018-06-22T12:33:55.302Z,15.80
2018-06-22T12:36:23.874Z,15.80
2018-06-22T12:38:52.414Z,15.70
2018-06-22T12:41:20.941Z,15.80
2018-06-22T12:43:49.483Z,16.00
2018-06-22T12:48:46.372Z,16.50
2018-06-22T12:51:14.896Z,16.80
2018-06-22T12:53:43.963Z,17.10
2018-06-22T12:56:12.583Z,17.20
2018-06-22T12:58:41.137Z,17.10
2018-06-22T13:01:09.693Z,16.90
2018-06-22T13:03:38.257Z,16.90
2018-06-22T13:06:06.852Z,16.70
2018-06-22T13:08:35.398Z,16.50
2018-06-22T13:11:03.992Z,16.30
2018-06-22T13:13:32.525Z,16.40
2018-06-22T13:16:01.086Z,16.40
2018-06-22T13:18:29.651Z,16.50
2018-06-22T13:20:58.273Z,16.50
2018-06-22T13:23:26.822Z,16.50
2018-06-22T13:25:55.386Z,16.50
2018-06-22T13:28:24.738Z,16.50
2018-06-22T13:30:53.323Z,16.40
2018-06-22T13:33:21.911Z,16.50
2018-06-22T13:35:50.447Z,16.50
2018-06-22T13:38:19.003Z,16.40
2018-06-22T13:40:47.550Z,16.20
2018-06-22T13:43:16.692Z,16.20
2018-06-22T13:45:45.817Z,16.70
2018-06-22T13:48:14.413Z,16.90
2018-06-22T13:50:42.975Z,16.90
2018-06-22T13:53:11.876Z,16.90
2018-06-22T13:55:40.479Z,16.90
2018-06-22T13:58:09.007Z,16.80
2018-06-22T14:00:37.750Z,16.60
2018-06-22T14:03:06.463Z,16.50
2018-06-22T14:05:40.371Z,16.60
2018-06-22T14:08:09.879Z,16.60
2018-06-22T14:10:38.427Z,16.80
2018-06-22T14:13:07.094Z,17.10
2018-06-22T14:15:35.731Z,17.50
2018-06-22T14:18:04.491Z,17.90
2018-06-22T14:20:33.028Z,18.40
2018-06-22T14:23:01.530Z,18.80
2018-06-22T14:25:30.107Z,19.00
2018-06-22T14:27:58.670Z,18.80
2018-06-22T14:30:27.373Z,18.90
2018-06-22T14:32:55.962Z,18.80
2018-06-22T14:35:24.590Z,18.70
2018-06-22T14:37:53.137Z,18.60
2018-06-22T14:40:21.677Z,18.60
2018-06-22T14:42:50.208Z,18.50
2018-06-22T14:45:18.803Z,18.60
2018-06-22T14:47:47.386Z,18.80
2018-06-22T14:50:17.424Z,19.10
2018-06-22T14:52:46.651Z,19.20
2018-06-22T14:55:20.547Z,19.20
2018-06-22T14:57:54.585Z,19.40
2018-06-22T15:00:28.580Z,19.30
2018-06-22T15:03:03.302Z,19.00
2018-06-22T15:05:37.167Z,18.90
2018-06-22T15:08:07.877Z,18.70
2018-06-22T15:10:37.095Z,18.70
2018-06-22T15:13:05.645Z,18.70
2018-06-22T15:15:34.834Z,18.90
2018-06-22T15:18:03.372Z,19.00
2018-06-22T15:20:31.928Z,18.80
2018-06-22T15:23:00.493Z,19.00
2018-06-22T15:25:29.080Z,18.90
2018-06-22T15:27:57.711Z,18.70
2018-06-22T15:30:26.277Z,18.70
2018-06-22T15:32:54.830Z,18.90
2018-06-22T15:35:28.770Z,19.10
2018-06-22T15:38:02.668Z,19.30
2018-06-22T15:40:36.734Z,19.30
2018-06-22T15:43:12.425Z,19.20
2018-06-22T15:45:46.843Z,19.10
2018-06-22T15:48:20.719Z,18.60
2018-06-22T15:50:54.744Z,18.80
2018-06-22T15:53:29.165Z,18.90
2018-06-22T15:56:13.138Z,19.20
2018-06-22T15:58:41.752Z,19.30
2018-06-22T16:03:43.873Z,19.20
2018-06-22T16:06:12.438Z,19.00
2018-06-22T16:08:41.754Z,19.00
2018-06-22T16:11:10.793Z,18.80
2018-06-22T16:13:40.119Z,18.90
2018-06-22T16:22:20.322Z,18.80
2018-06-22T16:24:54.166Z,18.70
2018-06-22T16:27:22.766Z,18.80
2018-06-22T16:29:51.302Z,18.70
2018-06-22T16:32:19.931Z,18.60
2018-06-22T16:34:48.523Z,18.60
2018-06-22T16:37:17.110Z,18.40
2018-06-22T16:39:46.655Z,18.20
2018-06-22T16:42:15.231Z,18.00
2018-06-22T16:44:43.763Z,17.80
2018-06-22T16:47:12.370Z,17.70
2018-06-22T16:49:40.976Z,17.70
2018-06-22T16:54:37.826Z,17.40
2018-06-22T16:57:06.986Z,17.40
2018-06-22T16:59:35.563Z,17.40
2018-06-22T17:02:04.161Z,17.30
2018-06-22T17:04:32.759Z,17.30
2018-06-22T17:07:06.730Z,17.30
2018-06-22T17:09:40.972Z,17.40
2018-06-22T17:12:16.278Z,17.30
2018-06-22T17:14:50.152Z,17.30
2018-06-22T17:19:58.356Z,17.10
2018-06-22T17:25:25.886Z,17.00
2018-06-22T17:27:54.505Z,17.00
2018-06-22T17:30:23.154Z,17.00
2018-06-22T17:32:51.696Z,16.90
2018-06-22T17:35:25.772Z,16.90
2018-06-22T17:37:54.330Z,16.80
2018-06-22T17:40:22.942Z,16.70
2018-06-22T17:42:51.605Z,16.70
2018-06-22T17:45:20.181Z,16.60
2018-06-22T17:47:48.714Z,16.60
2018-06-22T17:50:22.674Z,16.40
2018-06-22T17:52:51.241Z,16.50
2018-06-22T17:55:19.833Z,16.50
2018-06-22T17:57:48.423Z,16.50
2018-06-22T18:00:22.297Z,16.40
2018-06-22T18:02:56.151Z,16.40
2018-06-22T18:05:30.077Z,16.40
2018-06-22T18:08:10.220Z,16.40
2018-06-22T18:10:44.069Z,16.30
2018-06-22T18:13:12.664Z,16.30
2018-06-22T18:15:41.326Z,16.20
2018-06-22T18:18:09.938Z,16.10
2018-06-22T18:20:38.520Z,16.10
2018-06-22T18:23:07.136Z,15.90
2018-06-22T18:25:35.704Z,15.80
2018-06-22T18:28:04.338Z,15.70
2018-06-22T18:30:32.922Z,15.60
2018-06-22T18:33:01.543Z,15.50
2018-06-22T18:35:30.116Z,15.50
2018-06-22T18:37:58.739Z,15.50
2018-06-22T18:40:27.367Z,15.40
2018-06-22T18:42:55.936Z,15.30
2018-06-22T18:45:24.721Z,15.30
2018-06-22T18:47:53.281Z,15.20
2018-06-22T18:50:22.535Z,15.10
2018-06-22T18:52:56.522Z,15.10
2018-06-22T18:55:30.460Z,15.00
2018-06-22T18:58:04.357Z,15.00
2018-06-22T19:00:46.982Z,15.00
2018-06-22T19:03:20.921Z,15.00
2018-06-22T19:08:17.740Z,15.00
2018-06-22T19:10:46.459Z,14.90
2018-06-22T19:13:15.267Z,14.90
2018-06-22T19:15:43.929Z,14.80
2018-06-22T19:18:12.487Z,14.80
2018-06-22T19:20:41.277Z,14.70
2018-06-22T19:23:10.205Z,14.70
2018-06-22T19:25:38.785Z,14.60
2018-06-22T19:28:07.655Z,14.50
2018-06-22T19:30:36.687Z,14.50
2018-06-22T19:33:05.306Z,14.40
2018-06-22T19:35:33.889Z,14.40
2018-06-22T19:38:02.449Z,14.40
2018-06-22T19:40:31.033Z,14.30
2018-06-22T19:43:00.528Z,14.30
2018-06-22T19:45:34.627Z,14.20
2018-06-22T19:48:09.305Z,14.10
2018-06-22T19:50:43.236Z,14.00
2018-06-22T19:53:17.421Z,14.00
2018-06-22T19:55:45.982Z,13.90
2018-06-22T19:58:14.550Z,13.80
2018-06-22T20:00:43.151Z,13.80
2018-06-22T20:03:11.751Z,13.70
2018-06-22T20:05:40.364Z,13.70
2018-06-22T20:08:09.016Z,13.60
2018-06-22T20:10:37.704Z,13.60
2018-06-22T20:13:06.953Z,13.60
2018-06-22T20:15:35.891Z,13.50
2018-06-22T20:18:04.780Z,13.50
2018-06-22T20:20:33.802Z,13.50
2018-06-22T20:23:02.364Z,13.30
2018-06-22T20:25:36.178Z,13.30
2018-06-22T20:28:05.785Z,13.30
2018-06-22T20:30:34.316Z,13.20
2018-06-22T20:33:02.947Z,13.30
2018-06-22T20:35:36.784Z,13.30
2018-06-22T20:38:10.662Z,13.20
2018-06-22T20:40:44.584Z,13.10
2018-06-22T20:43:18.382Z,13.10
2018-06-22T20:45:57.310Z,13.00
2018-06-22T20:48:31.243Z,13.00
2018-06-22T20:50:59.830Z,12.90
2018-06-22T20:53:29.467Z,13.00
2018-06-22T20:55:58.069Z,13.00
2018-06-22T20:58:26.853Z,13.00
2018-06-22T21:00:55.407Z,12.90
2018-06-22T21:03:24.007Z,12.80
2018-06-22T21:05:52.654Z,12.60
2018-06-22T21:08:21.374Z,12.50
2018-06-22T21:10:49.963Z,12.40
2018-06-22T21:13:18.547Z,12.40
2018-06-22T21:18:16.212Z,12.30
2018-06-22T21:20:50.078Z,12.20
2018-06-22T21:23:18.709Z,12.20
2018-06-22T21:25:47.407Z,12.20
2018-06-22T21:29:24.051Z,12.20
2018-06-22T21:31:57.874Z,12.10
2018-06-22T21:34:33.301Z,12.10
2018-06-22T21:37:07.258Z,12.10
2018-06-22T21:39:35.940Z,12.10
2018-06-22T21:42:04.700Z,12.20
2018-06-22T21:47:01.567Z,12.20
2018-06-22T21:49:30.188Z,12.10
2018-06-22T21:51:58.796Z,12.10
2018-06-22T21:54:27.355Z,12.10
2018-06-22T21:56:55.945Z,12.10
2018-06-22T21:59:24.534Z,12.10
2018-06-22T22:01:53.124Z,12.20
2018-06-22T22:04:22.327Z,12.10
2018-06-22T22:06:50.910Z,12.20
2018-06-22T22:09:19.475Z,12.10
2018-06-22T22:11:55.187Z,12.10
2018-06-22T22:14:25.321Z,12.20
2018-06-22T22:16:55.618Z,12.20
2018-06-22T22:19:24.126Z,12.20
2018-06-22T22:21:52.946Z,12.20
2018-06-22T22:24:22.481Z,12.20
2018-06-22T22:26:51.087Z,12.30
2018-06-22T22:29:19.669Z,12.30
2018-06-22T22:31:48.222Z,12.30
2018-06-22T22:34:16.774Z,12.30
2018-06-22T22:36:45.348Z,12.30
2018-06-22T22:39:13.903Z,12.30
2018-06-22T22:41:42.525Z,12.30
2018-06-22T22:44:11.227Z,12.30
2018-06-22T22:46:40.138Z,12.30
2018-06-22T22:49:08.687Z,12.30
2018-06-22T22:51:37.256Z,12.30
2018-06-22T22:54:05.808Z,12.30
2018-06-22T22:56:34.432Z,12.30
2018-06-22T22:59:03.067Z,12.30
2018-06-22T23:01:31.615Z,12.30
2018-06-22T23:04:00.181Z,12.30
2018-06-22T23:06:28.726Z,12.40
2018-06-22T23:08:57.266Z,12.30
2018-06-22T23:11:25.854Z,12.30
2018-06-22T23:13:54.518Z,12.30
2018-06-22T23:16:23.050Z,12.30
2018-06-22T23:18:51.638Z,12.30
2018-06-22T23:21:20.204Z,12.30
2018-06-22T23:23:48.796Z,12.20
2018-06-22T23:26:17.353Z,12.20
2018-06-22T23:28:45.923Z,12.20
2018-06-22T23:31:14.454Z,12.20
2018-06-22T23:33:43.046Z,12.20
2018-06-22T23:36:11.713Z,12.20
2018-06-22T23:38:40.251Z,12.20
2018-06-22T23:41:08.831Z,12.20
2018-06-22T23:43:37.532Z,12.20
2018-06-22T23:46:06.124Z,12.20
2018-06-22T23:48:34.669Z,12.20
2018-06-22T23:51:03.233Z,12.20
2018-06-22T23:53:32.150Z,12.20
2018-06-22T23:56:00.735Z,12.20
2018-06-22T23:58:29.307Z,12.20
